createdAt,value
2023-05-05T00:00:15.476Z,96.06
2023-05-05T00:01:15.462Z,96.47
2023-05-05T00:02:15.543Z,96.37
2023-05-05T00:03:15.496Z,96.68
2023-05-05T00:04:16.551Z,96.37
2023-05-05T00:05:15.432Z,96.27
2023-05-05T00:06:15.428Z,96.62
2023-05-05T00:07:15.452Z,96.52
2023-05-05T00:08:15.410Z,96.62
2023-05-05T00:09:15.389Z,96.72
2023-05-05T00:10:15.397Z,97.55
2023-05-05T00:11:15.380Z,97.44
2023-05-05T00:12:15.401Z,97.34
2023-05-05T00:13:15.378Z,97.49
2023-05-05T00:14:15.365Z,96.97
2023-05-05T00:15:15.342Z,96.97
2023-05-05T00:16:15.366Z,96.88
2023-05-05T00:17:15.424Z,97.49
2023-05-05T00:18:15.319Z,97.80
2023-05-05T00:19:15.319Z,97.13
2023-05-05T00:20:15.308Z,97.39
2023-05-05T00:21:15.325Z,98.42
2023-05-05T00:22:15.298Z,98.15
2023-05-05T00:23:15.283Z,98.00
2023-05-05T00:24:15.297Z,97.64
2023-05-05T00:25:15.268Z,97.85
2023-05-05T00:26:15.291Z,97.23
2023-05-05T00:27:15.262Z,97.23
2023-05-05T00:28:15.251Z,97.43
2023-05-05T00:29:15.239Z,97.23
2023-05-05T00:30:15.250Z,97.33
2023-05-05T00:31:15.267Z,97.85
2023-05-05T00:32:15.213Z,98.15
2023-05-05T00:33:15.210Z,98.25
2023-05-05T00:34:15.201Z,98.05
2023-05-05T00:35:15.218Z,97.85
2023-05-05T00:36:15.186Z,97.23
2023-05-05T00:37:15.180Z,97.43
2023-05-05T00:38:15.174Z,97.85
2023-05-05T00:39:15.162Z,98.05
2023-05-05T00:40:15.192Z,97.64
2023-05-05T00:41:15.150Z,97.95
2023-05-05T00:42:15.147Z,97.89
2023-05-05T00:43:15.137Z,97.78
2023-05-05T00:44:15.128Z,98.25
2023-05-05T00:45:15.146Z,98.30
2023-05-05T00:46:15.152Z,98.15
2023-05-05T00:47:15.100Z,97.68
2023-05-05T00:48:15.088Z,97.89
2023-05-05T00:49:15.109Z,97.89
2023-05-05T00:50:15.107Z,97.89
2023-05-05T00:51:15.067Z,98.30
2023-05-05T00:52:15.071Z,98.30
2023-05-05T00:53:15.063Z,98.30
2023-05-05T00:54:15.075Z,98.50
2023-05-05T00:55:15.046Z,98.61
2023-05-05T00:56:15.032Z,98.30
2023-05-05T00:57:15.048Z,98.45
2023-05-05T00:58:15.022Z,98.24
2023-05-05T00:59:15.038Z,98.45
2023-05-05T01:00:15.000Z,98.66
2023-05-05T01:01:15.041Z,98.45
2023-05-05T01:02:14.988Z,98.24
2023-05-05T01:03:15.073Z,98.35
2023-05-05T01:04:14.997Z,98.76
2023-05-05T01:05:14.987Z,98.97
2023-05-05T01:06:14.957Z,99.17
2023-05-05T01:07:14.963Z,99.11
2023-05-05T01:08:14.971Z,98.97
2023-05-05T01:09:14.942Z,98.86
2023-05-05T01:10:22.433Z,99.01
2023-05-05T01:11:16.925Z,99.07
2023-05-05T01:12:14.914Z,98.91
2023-05-05T01:13:14.954Z,99.11
2023-05-05T01:14:14.892Z,99.01
2023-05-05T01:15:14.895Z,99.22
2023-05-05T01:16:14.912Z,98.97
2023-05-05T01:17:14.869Z,98.91
2023-05-05T01:18:14.886Z,98.76
2023-05-05T01:19:14.860Z,98.86
2023-05-05T01:20:14.880Z,99.07
2023-05-05T01:21:14.838Z,98.97
2023-05-05T01:22:14.862Z,99.07
2023-05-05T01:23:14.857Z,99.48
2023-05-05T01:24:14.818Z,99.07
2023-05-05T01:25:14.808Z,99.07
2023-05-05T01:26:14.800Z,98.91
2023-05-05T01:27:14.821Z,98.80
2023-05-05T01:28:14.785Z,98.76
2023-05-05T01:29:14.773Z,98.70
2023-05-05T01:30:14.761Z,98.80
2023-05-05T01:31:14.784Z,99.07
2023-05-05T01:32:14.794Z,99.32
2023-05-05T01:33:14.746Z,99.01
2023-05-05T01:34:14.743Z,99.43
2023-05-05T01:35:14.741Z,99.43
2023-05-05T01:36:14.745Z,98.80
2023-05-05T01:37:14.734Z,98.91
2023-05-05T01:38:14.711Z,99.32
2023-05-05T01:39:14.700Z,98.91
2023-05-05T01:40:14.755Z,98.70
2023-05-05T01:41:14.706Z,99.22
2023-05-05T01:42:14.668Z,99.11
2023-05-05T01:43:14.664Z,99.22
2023-05-05T01:44:14.654Z,98.91
2023-05-05T01:45:14.648Z,99.32
2023-05-05T01:46:14.809Z,99.01
2023-05-05T01:47:14.649Z,99.01
2023-05-05T01:48:14.630Z,99.11
2023-05-05T01:49:14.620Z,99.43
2023-05-05T01:50:14.635Z,99.32
2023-05-05T01:51:14.622Z,99.11
2023-05-05T01:52:14.589Z,99.01
2023-05-05T01:53:14.593Z,99.22
2023-05-05T01:54:14.581Z,98.91
2023-05-05T01:55:14.593Z,98.91
2023-05-05T01:56:14.573Z,98.80
2023-05-05T01:57:14.571Z,99.32
2023-05-05T01:58:14.563Z,99.32
2023-05-05T01:59:14.547Z,99.32
2023-05-05T02:00:14.936Z,99.32
2023-05-05T02:01:14.574Z,99.11
2023-05-05T02:02:14.532Z,99.73
2023-05-05T02:03:14.641Z,98.91
2023-05-05T02:04:14.569Z,99.01
2023-05-05T02:05:14.521Z,99.32
2023-05-05T02:06:14.493Z,99.01
2023-05-05T02:07:14.512Z,99.22
2023-05-05T02:08:15.488Z,99.32
2023-05-05T02:09:14.487Z,98.66
2023-05-05T02:10:14.456Z,99.07
2023-05-05T02:11:14.458Z,99.69
2023-05-05T02:12:14.456Z,99.48
2023-05-05T02:13:14.495Z,99.38
2023-05-05T02:14:14.454Z,99.38
2023-05-05T02:15:14.438Z,99.79
2023-05-05T02:16:14.428Z,99.07
2023-05-05T02:17:14.406Z,99.07
2023-05-05T02:18:14.431Z,99.17
2023-05-05T02:19:14.424Z,99.07
2023-05-05T02:20:14.394Z,99.38
2023-05-05T02:21:14.382Z,99.17
2023-05-05T02:22:14.376Z,99.02
2023-05-05T02:23:14.382Z,99.33
2023-05-05T02:24:14.375Z,99.54
2023-05-05T02:25:14.342Z,99.33
2023-05-05T02:26:14.334Z,99.33
2023-05-05T02:27:14.321Z,99.23
2023-05-05T02:28:14.348Z,99.39
2023-05-05T02:29:14.314Z,99.49
2023-05-05T02:30:14.298Z,99.23
2023-05-05T02:31:14.353Z,99.43
2023-05-05T02:32:14.286Z,99.43
2023-05-05T02:33:14.316Z,98.77
2023-05-05T02:34:14.271Z,99.60
2023-05-05T02:35:14.259Z,98.88
2023-05-05T02:36:14.256Z,99.02
2023-05-05T02:37:14.276Z,98.67
2023-05-05T02:38:14.267Z,98.92
2023-05-05T02:39:14.232Z,98.88
2023-05-05T02:40:14.220Z,99.18
2023-05-05T02:41:14.209Z,99.29
2023-05-05T02:42:14.243Z,98.36
2023-05-05T02:43:14.230Z,98.67
2023-05-05T02:44:14.330Z,98.25
2023-05-05T02:45:14.185Z,98.67
2023-05-05T02:46:14.207Z,98.25
2023-05-05T02:47:14.193Z,98.32
2023-05-05T02:48:14.158Z,97.90
2023-05-05T02:49:14.151Z,98.05
2023-05-05T02:50:14.153Z,97.85
2023-05-05T02:51:14.130Z,97.95
2023-05-05T02:52:14.165Z,97.74
2023-05-05T02:53:14.115Z,98.05
2023-05-05T02:54:14.111Z,97.85
2023-05-05T02:55:14.105Z,98.05
2023-05-05T02:56:14.115Z,98.36
2023-05-05T02:57:14.115Z,97.95
2023-05-05T02:58:14.074Z,97.99
2023-05-05T02:59:16.188Z,98.10
2023-05-05T03:00:15.059Z,98.25
2023-05-05T03:01:14.103Z,98.36
2023-05-05T03:02:14.046Z,98.36
2023-05-05T03:03:14.219Z,98.57
2023-05-05T03:04:14.128Z,98.25
2023-05-05T03:05:14.026Z,98.61
2023-05-05T03:06:14.036Z,98.36
2023-05-05T03:07:14.009Z,98.25
2023-05-05T03:08:14.019Z,98.25
2023-05-05T03:09:13.991Z,98.57
2023-05-05T03:10:13.989Z,98.46
2023-05-05T03:11:14.002Z,98.25
2023-05-05T03:12:13.969Z,98.36
2023-05-05T03:13:14.047Z,97.69
2023-05-05T03:14:13.966Z,97.69
2023-05-05T03:15:13.971Z,98.15
2023-05-05T03:16:14.009Z,98.00
2023-05-05T03:17:13.931Z,98.25
2023-05-05T03:18:13.923Z,98.25
2023-05-05T03:19:13.917Z,98.25
2023-05-05T03:20:13.935Z,98.15
2023-05-05T03:21:13.907Z,98.25
2023-05-05T03:22:13.884Z,98.05
2023-05-05T03:23:13.877Z,97.85
2023-05-05T03:24:13.874Z,97.23
2023-05-05T03:25:13.884Z,97.68
2023-05-05T03:26:13.861Z,97.38
2023-05-05T03:27:13.844Z,97.33
2023-05-05T03:28:13.840Z,97.78
2023-05-05T03:29:13.870Z,97.27
2023-05-05T03:30:13.843Z,97.27
2023-05-05T03:31:13.830Z,97.68
2023-05-05T03:32:13.963Z,97.78
2023-05-05T03:33:13.806Z,98.30
2023-05-05T03:34:13.819Z,97.78
2023-05-05T03:35:13.788Z,97.38
2023-05-05T03:36:13.787Z,97.27
2023-05-05T03:37:13.770Z,97.63
2023-05-05T03:38:13.754Z,97.78
2023-05-05T03:39:13.800Z,98.20
2023-05-05T03:40:13.745Z,98.10
2023-05-05T03:41:13.742Z,98.03
2023-05-05T03:42:13.730Z,98.20
2023-05-05T03:43:13.770Z,98.24
2023-05-05T03:44:13.751Z,97.94
2023-05-05T03:45:13.706Z,98.10
2023-05-05T03:46:13.777Z,98.03
2023-05-05T03:47:13.696Z,98.66
2023-05-05T03:48:13.729Z,98.35
2023-05-05T03:49:13.676Z,98.70
2023-05-05T03:50:13.663Z,98.70
2023-05-05T03:51:13.658Z,98.70
2023-05-05T03:52:14.949Z,98.39
2023-05-05T03:53:13.668Z,99.32
2023-05-05T03:54:13.638Z,99.17
2023-05-05T03:55:13.628Z,98.70
2023-05-05T03:56:13.621Z,99.27
2023-05-05T03:57:13.618Z,98.70
2023-05-05T03:58:13.636Z,99.27
2023-05-05T03:59:13.603Z,99.22
2023-05-05T04:00:13.591Z,99.38
2023-05-05T04:01:13.588Z,99.01
2023-05-05T04:02:13.622Z,99.01
2023-05-05T04:03:13.742Z,98.91
2023-05-05T04:04:13.577Z,98.39
2023-05-05T04:05:13.591Z,98.60
2023-05-05T04:06:13.559Z,98.35
2023-05-05T04:07:13.554Z,98.50
2023-05-05T04:08:14.537Z,98.29
2023-05-05T04:09:13.566Z,98.50
2023-05-05T04:10:13.523Z,98.50
2023-05-05T04:11:13.510Z,98.08
2023-05-05T04:12:13.531Z,98.19
2023-05-05T04:13:13.512Z,97.98
2023-05-05T04:14:13.488Z,98.19
2023-05-05T04:15:13.478Z,97.98
2023-05-05T04:16:13.531Z,98.14
2023-05-05T04:17:13.497Z,97.94
2023-05-05T04:18:13.463Z,97.94
2023-05-05T04:19:13.460Z,98.30
2023-05-05T04:20:13.453Z,97.33
2023-05-05T04:21:13.470Z,95.86
2023-05-05T04:22:13.422Z,94.78
2023-05-05T04:23:13.417Z,93.71
2023-05-05T04:24:13.406Z,92.58
2023-05-05T04:25:13.404Z,92.80
2023-05-05T04:26:13.425Z,90.50
2023-05-05T04:27:13.385Z,90.56
2023-05-05T04:28:13.371Z,89.70
2023-05-05T04:29:13.363Z,88.57
2023-05-05T04:30:13.388Z,87.88
2023-05-05T04:31:13.428Z,86.67
2023-05-05T04:32:13.350Z,85.20
2023-05-05T04:33:13.336Z,83.28
2023-05-05T04:34:13.328Z,82.87
2023-05-05T04:35:13.357Z,80.79
2023-05-05T04:36:13.318Z,80.65
2023-05-05T04:37:13.303Z,79.69
2023-05-05T04:38:13.296Z,79.75
2023-05-05T04:39:13.292Z,78.77
2023-05-05T04:40:13.317Z,79.04
2023-05-05T04:41:13.275Z,78.84
2023-05-05T04:42:13.261Z,79.04
2023-05-05T04:43:13.256Z,78.53
2023-05-05T04:44:13.285Z,79.35
2023-05-05T04:45:13.259Z,79.49
2023-05-05T04:46:13.269Z,81.74
2023-05-05T04:47:14.645Z,82.91
2023-05-05T04:48:14.218Z,84.69
2023-05-05T04:49:13.230Z,84.99
2023-05-05T04:50:13.196Z,83.79
2023-05-05T04:51:13.189Z,83.38
2023-05-05T04:52:13.188Z,83.73
2023-05-05T04:53:13.174Z,84.79
2023-05-05T04:54:13.190Z,85.81
2023-05-05T04:55:13.152Z,85.91
2023-05-05T04:56:13.148Z,85.30
2023-05-05T04:57:13.139Z,86.02
2023-05-05T04:58:13.155Z,86.18
2023-05-05T04:59:13.144Z,83.78
2023-05-05T05:00:13.111Z,81.31
2023-05-05T05:01:13.120Z,78.82
2023-05-05T05:02:13.145Z,76.82
2023-05-05T05:03:13.201Z,74.82
2023-05-05T05:04:13.088Z,74.14
2023-05-05T05:05:13.086Z,75.12
2023-05-05T05:06:13.075Z,76.31
2023-05-05T05:07:13.058Z,76.18
2023-05-05T05:08:13.075Z,76.96
2023-05-05T05:09:13.064Z,77.71
2023-05-05T05:10:13.037Z,79.21
2023-05-05T05:11:13.021Z,79.45
2023-05-05T05:12:13.040Z,79.62
2023-05-05T05:13:13.268Z,79.41
2023-05-05T05:14:13.012Z,79.41
2023-05-05T05:15:12.994Z,80.07
2023-05-05T05:16:13.036Z,80.88
2023-05-05T05:17:13.001Z,80.78
2023-05-05T05:18:12.964Z,79.61
2023-05-05T05:19:12.957Z,77.50
2023-05-05T05:20:12.950Z,77.40
2023-05-05T05:21:12.944Z,76.75
2023-05-05T05:22:12.960Z,75.49
2023-05-05T05:23:12.929Z,73.09
2023-05-05T05:24:12.916Z,71.20
2023-05-05T05:25:12.936Z,70.05
2023-05-05T05:26:12.936Z,69.78
2023-05-05T05:27:12.921Z,68.30
2023-05-05T05:28:12.882Z,66.96
2023-05-05T05:29:12.888Z,66.02
2023-05-05T05:30:12.881Z,65.31
2023-05-05T05:31:12.894Z,66.12
2023-05-05T05:32:12.975Z,65.68
2023-05-05T05:33:12.887Z,64.75
2023-05-05T05:34:13.041Z,64.48
2023-05-05T05:35:12.873Z,62.71
2023-05-05T05:36:12.857Z,63.18
2023-05-05T05:37:12.816Z,63.28
2023-05-05T05:38:12.820Z,63.28
2023-05-05T05:39:12.798Z,63.67
2023-05-05T05:40:12.789Z,64.41
2023-05-05T05:41:12.831Z,62.71
2023-05-05T05:42:12.776Z,62.68
2023-05-05T05:43:12.769Z,61.34
2023-05-05T05:44:12.763Z,61.24
2023-05-05T05:45:12.791Z,61.31
2023-05-05T05:46:12.803Z,60.98
2023-05-05T05:47:12.739Z,60.78
2023-05-05T05:48:12.730Z,61.49
2023-05-05T05:49:12.717Z,60.31
2023-05-05T05:50:12.739Z,60.78
2023-05-05T05:51:12.708Z,60.98
2023-05-05T05:52:12.698Z,61.66
2023-05-05T05:53:12.695Z,60.80
2023-05-05T05:54:12.676Z,60.19
2023-05-05T05:55:12.693Z,59.39
2023-05-05T05:56:12.661Z,59.77
2023-05-05T05:57:12.654Z,59.66
2023-05-05T05:58:12.646Z,58.86
2023-05-05T05:59:12.639Z,59.29
2023-05-05T06:00:12.653Z,60.66
2023-05-05T06:01:12.636Z,59.13
2023-05-05T06:02:12.634Z,58.68
2023-05-05T06:03:12.794Z,58.28
2023-05-05T06:04:12.720Z,57.02
2023-05-05T06:05:12.619Z,56.89
2023-05-05T06:06:12.601Z,56.92
2023-05-05T06:07:12.561Z,56.98
2023-05-05T06:08:13.571Z,56.95
2023-05-05T06:09:12.588Z,56.82
2023-05-05T06:10:26.390Z,57.19
2023-05-05T06:11:14.554Z,56.99
2023-05-05T06:12:12.537Z,55.89
2023-05-05T06:13:13.556Z,55.36
2023-05-05T06:14:12.557Z,56.89
2023-05-05T06:15:12.520Z,56.89
2023-05-05T06:16:12.620Z,55.40
2023-05-05T06:17:13.514Z,57.29
2023-05-05T06:18:12.563Z,56.94
2023-05-05T06:19:12.511Z,55.84
2023-05-05T06:20:12.476Z,55.91
2023-05-05T06:21:12.515Z,54.46
2023-05-05T06:22:12.468Z,53.74
2023-05-05T06:23:12.491Z,53.84
2023-05-05T06:24:12.457Z,55.51
2023-05-05T06:25:12.449Z,52.00
2023-05-05T06:26:12.443Z,51.89
2023-05-05T06:27:12.434Z,51.77
2023-05-05T06:28:12.457Z,50.45
2023-05-05T06:29:12.548Z,49.76
2023-05-05T06:30:13.422Z,49.46
2023-05-05T06:31:12.437Z,49.66
2023-05-05T06:32:12.425Z,50.80
2023-05-05T06:33:12.415Z,51.77
2023-05-05T06:34:12.389Z,51.05
2023-05-05T06:35:12.379Z,51.27
2023-05-05T06:36:12.390Z,51.79
2023-05-05T06:37:12.403Z,52.22
2023-05-05T06:38:12.360Z,51.70
2023-05-05T06:39:13.528Z,53.19
2023-05-05T06:40:12.353Z,53.11
2023-05-05T06:41:12.349Z,54.01
2023-05-05T06:42:12.369Z,51.92
2023-05-05T06:43:12.325Z,53.74
2023-05-05T06:44:12.323Z,55.01
2023-05-05T06:45:12.310Z,54.08
2023-05-05T06:46:12.394Z,53.41
2023-05-05T06:47:13.126Z,53.22
2023-05-05T06:48:12.293Z,52.19
2023-05-05T06:49:12.284Z,51.25
2023-05-05T06:50:12.279Z,51.45
2023-05-05T06:51:12.292Z,51.54
2023-05-05T06:52:12.265Z,49.61
2023-05-05T06:53:12.255Z,50.31
2023-05-05T06:54:12.254Z,49.78
2023-05-05T06:55:12.250Z,50.26
2023-05-05T06:56:12.289Z,50.58
2023-05-05T06:57:12.235Z,50.68
2023-05-05T06:58:12.228Z,51.05
2023-05-05T06:59:12.225Z,49.07
2023-05-05T07:00:12.210Z,48.82
2023-05-05T07:01:12.278Z,47.63
2023-05-05T07:02:12.193Z,46.66
2023-05-05T07:03:12.379Z,48.44
2023-05-05T07:04:12.246Z,47.83
2023-05-05T07:05:12.214Z,47.31
2023-05-05T07:06:12.202Z,47.63
2023-05-05T07:07:12.185Z,47.77
2023-05-05T07:08:12.152Z,48.29
2023-05-05T07:09:12.152Z,48.81
2023-05-05T07:10:12.170Z,48.89
2023-05-05T07:11:12.135Z,49.54
2023-05-05T07:12:12.127Z,49.09
2023-05-05T07:13:12.201Z,47.63
2023-05-05T07:14:12.115Z,47.83
2023-05-05T07:15:26.126Z,49.68
2023-05-05T07:16:14.137Z,51.27
2023-05-05T07:17:12.095Z,51.70
2023-05-05T07:18:12.124Z,51.97
2023-05-05T07:19:12.171Z,51.62
2023-05-05T07:20:12.106Z,49.63
2023-05-05T07:21:12.067Z,48.40
2023-05-05T07:22:12.074Z,47.83
2023-05-05T07:23:12.056Z,47.93
2023-05-05T07:24:12.098Z,46.52
2023-05-05T07:25:12.047Z,45.41
2023-05-05T07:26:12.058Z,46.50
2023-05-05T07:27:12.037Z,48.53
2023-05-05T07:28:12.025Z,48.15
2023-05-05T07:29:12.068Z,50.18
2023-05-05T07:30:16.282Z,49.46
2023-05-05T07:31:14.008Z,47.78
2023-05-05T07:32:12.049Z,48.45
2023-05-05T07:33:12.035Z,48.55
2023-05-05T07:34:12.004Z,47.04
2023-05-05T07:35:12.038Z,46.52
2023-05-05T07:36:11.977Z,46.70
2023-05-05T07:37:11.970Z,44.78
2023-05-05T07:38:11.989Z,44.24
2023-05-05T07:39:11.957Z,44.89
2023-05-05T07:40:11.960Z,43.73
2023-05-05T07:41:11.944Z,43.94
2023-05-05T07:42:11.950Z,45.20
2023-05-05T07:43:11.947Z,43.05
2023-05-05T07:44:11.911Z,43.45
2023-05-05T07:45:11.907Z,43.11
2023-05-05T07:46:12.039Z,42.30
2023-05-05T07:47:11.933Z,44.76
2023-05-05T07:48:11.915Z,42.68
2023-05-05T07:49:11.881Z,42.89
2023-05-05T07:50:11.871Z,42.97
2023-05-05T07:51:11.929Z,41.61
2023-05-05T07:52:11.890Z,43.29
2023-05-05T07:53:14.871Z,42.47
2023-05-05T07:54:12.860Z,41.49
2023-05-05T07:55:11.843Z,44.71
2023-05-05T07:56:11.836Z,42.74
2023-05-05T07:57:11.872Z,42.34
2023-05-05T07:58:11.842Z,42.93
2023-05-05T07:59:11.816Z,43.07
2023-05-05T08:00:11.924Z,45.09
2023-05-05T08:01:11.825Z,43.69
2023-05-05T08:02:11.844Z,44.87
2023-05-05T08:03:12.307Z,44.23
2023-05-05T08:04:12.850Z,46.82
2023-05-05T08:05:11.923Z,45.01
2023-05-05T08:06:11.805Z,43.63
2023-05-05T08:07:11.870Z,44.45
2023-05-05T08:08:11.762Z,45.36
2023-05-05T08:09:11.765Z,46.55
2023-05-05T08:10:11.814Z,45.56
2023-05-05T08:11:11.770Z,45.18
2023-05-05T08:12:11.742Z,45.60
2023-05-05T08:13:11.768Z,46.53
2023-05-05T08:14:11.770Z,47.45
2023-05-05T08:15:11.878Z,48.84
2023-05-05T08:16:11.777Z,49.44
2023-05-05T08:17:12.276Z,48.52
2023-05-05T08:18:11.703Z,49.09
2023-05-05T08:19:25.103Z,47.80
2023-05-05T08:20:13.714Z,47.49
2023-05-05T08:21:11.689Z,46.69
2023-05-05T08:22:11.679Z,47.38
2023-05-05T08:23:11.725Z,46.59
2023-05-05T08:24:11.691Z,46.25
2023-05-05T08:25:11.686Z,46.55
2023-05-05T08:26:11.684Z,45.61
2023-05-05T08:27:11.653Z,45.43
2023-05-05T08:28:11.635Z,45.63
2023-05-05T08:29:11.667Z,47.53
2023-05-05T08:30:11.626Z,46.42
2023-05-05T08:31:11.669Z,47.52
2023-05-05T08:32:11.610Z,45.71
2023-05-05T08:33:11.626Z,45.67
2023-05-05T08:34:11.637Z,46.01
2023-05-05T08:35:12.194Z,46.30
2023-05-05T08:36:11.607Z,49.36
2023-05-05T08:37:11.579Z,51.79
2023-05-05T08:38:11.599Z,50.55
2023-05-05T08:39:11.813Z,52.22
2023-05-05T08:40:11.569Z,53.14
2023-05-05T08:41:11.551Z,53.36
2023-05-05T08:42:11.755Z,53.74
2023-05-05T08:43:11.570Z,54.46
2023-05-05T08:44:11.544Z,54.36
2023-05-05T08:45:11.835Z,55.58
2023-05-05T08:46:11.522Z,54.49
2023-05-05T08:47:11.546Z,55.09
2023-05-05T08:48:11.548Z,55.39
2023-05-05T08:49:11.492Z,55.49
2023-05-05T08:50:11.500Z,55.19
2023-05-05T08:51:11.485Z,55.49
2023-05-05T08:52:11.512Z,55.91
2023-05-05T08:53:11.513Z,56.54
2023-05-05T08:54:11.456Z,56.51
2023-05-05T08:55:11.518Z,56.09
2023-05-05T08:56:11.456Z,56.33
2023-05-05T08:57:11.461Z,54.96
2023-05-05T08:58:11.425Z,51.40
2023-05-05T08:59:11.424Z,51.07
2023-05-05T09:00:11.413Z,51.65
2023-05-05T09:01:11.437Z,51.40
2023-05-05T09:02:11.443Z,50.40
2023-05-05T09:03:11.492Z,51.57
2023-05-05T09:04:11.391Z,51.37
2023-05-05T09:05:11.467Z,49.07
2023-05-05T09:06:11.396Z,50.38
2023-05-05T09:07:11.396Z,49.54
2023-05-05T09:08:11.381Z,49.07
2023-05-05T09:09:11.375Z,51.50
2023-05-05T09:10:11.406Z,54.21
2023-05-05T09:11:11.476Z,52.12
2023-05-05T09:12:11.333Z,51.89
2023-05-05T09:13:11.350Z,54.35
2023-05-05T09:14:11.323Z,52.56
2023-05-05T09:15:11.332Z,53.06
2023-05-05T09:16:11.363Z,53.78
2023-05-05T09:17:11.342Z,53.61
2023-05-05T09:18:11.377Z,55.90
2023-05-05T09:19:11.297Z,51.89
2023-05-05T09:20:11.316Z,52.96
2023-05-05T09:21:11.303Z,52.86
2023-05-05T09:22:11.253Z,53.06
2023-05-05T09:23:11.254Z,53.04
2023-05-05T09:24:11.252Z,51.95
2023-05-05T09:25:11.280Z,51.84
2023-05-05T09:26:11.229Z,51.47
2023-05-05T09:27:11.276Z,52.76
2023-05-05T09:28:11.216Z,52.07
2023-05-05T09:29:11.214Z,52.96
2023-05-05T09:30:11.243Z,53.06
2023-05-05T09:31:11.240Z,53.78
2023-05-05T09:32:11.244Z,53.09
2023-05-05T09:33:11.209Z,54.01
2023-05-05T09:34:11.199Z,55.16
2023-05-05T09:35:11.204Z,55.55
2023-05-05T09:36:11.157Z,56.68
2023-05-05T09:37:11.147Z,55.98
2023-05-05T09:38:11.137Z,55.78
2023-05-05T09:39:11.155Z,53.86
2023-05-05T09:40:11.120Z,55.95
2023-05-05T09:41:11.118Z,56.75
2023-05-05T09:42:11.105Z,56.18
2023-05-05T09:43:11.158Z,57.07
2023-05-05T09:44:11.127Z,55.68
2023-05-05T09:45:11.093Z,54.58
2023-05-05T09:46:11.133Z,53.49
2023-05-05T09:47:26.009Z,55.05
2023-05-05T09:48:13.092Z,55.88
2023-05-05T09:49:11.072Z,55.95
2023-05-05T09:50:11.045Z,55.23
2023-05-05T09:51:11.038Z,54.83
2023-05-05T09:52:11.026Z,56.30
2023-05-05T09:53:11.044Z,55.00
2023-05-05T09:54:11.036Z,54.97
2023-05-05T09:55:11.015Z,54.88
2023-05-05T09:56:10.996Z,53.98
2023-05-05T09:57:11.000Z,54.11
2023-05-05T09:58:11.063Z,51.70
2023-05-05T09:59:10.991Z,53.58
2023-05-05T10:00:11.140Z,53.88
2023-05-05T10:01:10.972Z,53.51
2023-05-05T10:02:10.956Z,54.90
2023-05-05T10:03:11.025Z,55.50
2023-05-05T10:04:10.937Z,56.32
2023-05-05T10:05:10.947Z,56.20
2023-05-05T10:06:10.921Z,56.77
2023-05-05T10:07:10.953Z,54.48
2023-05-05T10:08:10.940Z,53.56
2023-05-05T10:09:10.890Z,52.14
2023-05-05T10:10:11.067Z,54.13
2023-05-05T10:11:10.894Z,56.19
2023-05-05T10:12:10.895Z,55.62
2023-05-05T10:13:10.884Z,54.72
2023-05-05T10:14:10.870Z,55.40
2023-05-05T10:15:10.976Z,55.17
2023-05-05T10:16:10.914Z,54.47
2023-05-05T10:17:10.856Z,55.27
2023-05-05T10:18:10.916Z,51.28
2023-05-05T10:19:10.832Z,54.75
2023-05-05T10:20:10.840Z,56.04
2023-05-05T10:21:10.831Z,55.21
2023-05-05T10:22:10.823Z,53.43
2023-05-05T10:23:10.789Z,53.90
2023-05-05T10:24:10.823Z,53.20
2023-05-05T10:25:10.791Z,54.30
2023-05-05T10:26:10.808Z,51.42
2023-05-05T10:27:12.139Z,53.43
2023-05-05T10:28:10.760Z,53.43
2023-05-05T10:29:10.751Z,53.03
2023-05-05T10:30:10.877Z,56.23
2023-05-05T10:31:24.478Z,56.63
2023-05-05T10:32:40.676Z,56.01
2023-05-05T10:33:30.237Z,56.30
2023-05-05T10:34:12.828Z,55.71
2023-05-05T10:35:10.708Z,56.51
2023-05-05T10:36:10.730Z,54.22
2023-05-05T10:37:10.707Z,51.72
2023-05-05T10:38:10.684Z,51.32
2023-05-05T10:39:10.691Z,51.40
2023-05-05T10:40:10.896Z,55.46
2023-05-05T10:41:10.689Z,51.30
2023-05-05T10:42:10.654Z,50.71
2023-05-05T10:43:10.640Z,50.88
2023-05-05T10:44:10.641Z,51.50
2023-05-05T10:45:10.707Z,51.50
2023-05-05T10:46:10.670Z,53.28
2023-05-05T10:47:10.700Z,54.05
2023-05-05T10:48:10.794Z,52.49
2023-05-05T10:49:12.913Z,54.69
2023-05-05T10:50:11.619Z,54.42
2023-05-05T10:51:10.593Z,53.33
2023-05-05T10:52:10.580Z,54.22
2023-05-05T10:53:10.594Z,58.32
2023-05-05T10:54:10.667Z,58.04
2023-05-05T10:55:10.603Z,56.06
2023-05-05T10:56:10.555Z,60.80
2023-05-05T10:57:10.612Z,57.53
2023-05-05T10:58:10.541Z,56.98
2023-05-05T10:59:10.556Z,62.34
2023-05-05T11:00:10.610Z,59.59
2023-05-05T11:01:10.545Z,58.37
2023-05-05T11:02:10.504Z,58.30
2023-05-05T11:03:10.576Z,59.19
2023-05-05T11:04:10.541Z,60.35
2023-05-05T11:05:10.499Z,57.56
2023-05-05T11:06:10.478Z,60.05
2023-05-05T11:07:13.823Z,58.71
2023-05-05T11:08:11.462Z,62.26
2023-05-05T11:09:10.481Z,60.86
2023-05-05T11:10:10.698Z,62.21
2023-05-05T11:11:10.451Z,59.85
2023-05-05T11:12:10.444Z,63.94
2023-05-05T11:13:10.608Z,62.37
2023-05-05T11:14:10.435Z,62.34
2023-05-05T11:15:10.409Z,59.75
2023-05-05T11:16:10.445Z,63.64
2023-05-05T11:17:10.393Z,64.04
2023-05-05T11:18:10.420Z,65.34
2023-05-05T11:19:10.424Z,64.04
2023-05-05T11:20:10.505Z,62.64
2023-05-05T11:21:10.377Z,63.74
2023-05-05T11:22:10.350Z,62.41
2023-05-05T11:23:10.413Z,61.88
2023-05-05T11:24:10.342Z,60.26
2023-05-05T11:25:10.342Z,61.83
2023-05-05T11:26:10.325Z,63.29
2023-05-05T11:27:10.315Z,62.56
2023-05-05T11:28:10.329Z,64.09
2023-05-05T11:29:10.302Z,61.69
2023-05-05T11:30:10.589Z,64.18
2023-05-05T11:31:10.302Z,63.62
2023-05-05T11:32:10.300Z,59.14
2023-05-05T11:33:10.305Z,59.11
2023-05-05T11:34:10.258Z,60.30
2023-05-05T11:35:10.358Z,59.14
2023-05-05T11:36:10.241Z,64.22
2023-05-05T11:37:10.266Z,61.43
2023-05-05T11:38:10.227Z,60.16
2023-05-05T11:39:10.222Z,61.96
2023-05-05T11:40:10.387Z,61.96
2023-05-05T11:41:10.215Z,59.42
2023-05-05T11:42:10.928Z,62.24
2023-05-05T11:43:11.200Z,62.67
2023-05-05T11:44:10.194Z,62.87
2023-05-05T11:45:10.194Z,61.18
2023-05-05T11:46:10.250Z,63.97
2023-05-05T11:47:10.197Z,62.20
2023-05-05T11:48:10.190Z,60.80
2023-05-05T11:49:10.149Z,62.87
2023-05-05T11:50:10.271Z,61.87
2023-05-05T11:51:10.278Z,62.48
2023-05-05T11:52:10.135Z,61.77
2023-05-05T11:53:10.116Z,62.27
2023-05-05T11:54:10.111Z,61.77
2023-05-05T11:55:10.110Z,61.08
2023-05-05T11:56:10.131Z,60.65
2023-05-05T11:57:10.092Z,62.59
2023-05-05T11:58:10.084Z,62.55
2023-05-05T11:59:10.085Z,61.00
2023-05-05T12:00:10.403Z,58.58
2023-05-05T12:01:10.079Z,56.67
2023-05-05T12:02:10.056Z,60.42
2023-05-05T12:03:10.095Z,58.43
2023-05-05T12:04:10.147Z,59.55
2023-05-05T12:05:10.052Z,61.80
2023-05-05T12:06:10.037Z,59.06
2023-05-05T12:07:10.152Z,59.69
2023-05-05T12:08:10.002Z,62.29
2023-05-05T12:09:09.995Z,63.91
2023-05-05T12:10:10.170Z,62.57
2023-05-05T12:11:10.001Z,65.97
2023-05-05T12:12:09.985Z,64.80
2023-05-05T12:13:09.992Z,61.00
2023-05-05T12:14:09.975Z,64.07
2023-05-05T12:15:10.984Z,65.26
2023-05-05T12:16:09.964Z,64.90
2023-05-05T12:17:09.947Z,62.27
2023-05-05T12:18:09.940Z,61.98
2023-05-05T12:19:09.939Z,60.75
2023-05-05T12:20:10.331Z,60.75
2023-05-05T12:21:09.895Z,62.21
2023-05-05T12:22:09.892Z,61.99
2023-05-05T12:23:09.940Z,63.15
2023-05-05T12:24:09.905Z,62.23
2023-05-05T12:25:09.882Z,59.91
2023-05-05T12:26:09.870Z,58.11
2023-05-05T12:27:09.848Z,57.32
2023-05-05T12:28:09.883Z,56.42
2023-05-05T12:29:09.870Z,56.42
2023-05-05T12:30:09.946Z,57.19
2023-05-05T12:31:09.846Z,56.67
2023-05-05T12:32:09.887Z,57.26
2023-05-05T12:33:09.830Z,56.07
2023-05-05T12:34:09.830Z,56.67
2023-05-05T12:35:09.784Z,56.77
2023-05-05T12:36:09.794Z,55.94
2023-05-05T12:37:09.779Z,53.33
2023-05-05T12:38:09.800Z,55.72
2023-05-05T12:39:09.763Z,54.63
2023-05-05T12:40:09.937Z,54.72
2023-05-05T12:41:09.756Z,53.96
2023-05-05T12:42:09.767Z,53.23
2023-05-05T12:43:09.752Z,55.65
2023-05-05T12:44:09.719Z,55.25
2023-05-05T12:45:09.728Z,57.14
2023-05-05T12:46:09.908Z,58.23
2023-05-05T12:47:09.736Z,57.64
2023-05-05T12:48:09.701Z,56.47
2023-05-05T12:49:09.697Z,59.05
2023-05-05T12:50:09.882Z,58.86
2023-05-05T12:51:09.659Z,57.56
2023-05-05T12:52:10.677Z,56.27